createdAt,value
2022-08-30T00:01:05.334Z,99969.38
2022-08-30T00:03:38.073Z,99969.81
2022-08-30T00:06:06.631Z,99964.78
2022-08-30T00:08:33.865Z,99957.22
2022-08-30T00:11:01.587Z,99958.25
2022-08-30T00:13:28.497Z,99972.31
2022-08-30T00:15:55.038Z,99960.16
2022-08-30T00:18:22.409Z,99969.41
2022-08-30T00:20:51.330Z,99963.09
2022-08-30T00:23:18.653Z,99974.84
2022-08-30T00:25:45.345Z,99979.91
2022-08-30T00:28:12.576Z,99979.91
2022-08-30T00:30:39.380Z,99987.03
2022-08-30T00:33:06.342Z,99988.28
2022-08-30T00:35:33.219Z,99982.81
2022-08-30T00:37:59.740Z,99986.63
2022-08-30T00:40:28.547Z,99984.50
2022-08-30T00:42:58.776Z,99982.81
2022-08-30T00:45:36.264Z,99984.50
2022-08-30T00:48:03.155Z,99985.56
2022-08-30T00:50:34.211Z,99989.97
2022-08-30T00:53:01.793Z,99984.50
2022-08-30T00:55:29.235Z,99982.81
2022-08-30T00:57:59.967Z,99987.25
2022-08-30T01:00:28.486Z,99983.47
2022-08-30T01:02:55.329Z,99983.25
2022-08-30T01:05:22.353Z,99977.56
2022-08-30T01:07:48.879Z,99984.72
2022-08-30T01:10:15.628Z,99991.22
2022-08-30T01:12:42.965Z,99984.72
2022-08-30T01:15:09.706Z,99988.94
2022-08-30T01:17:36.685Z,99984.94
2022-08-30T01:20:05.951Z,99991.25
2022-08-30T01:22:44.424Z,99997.53
2022-08-30T01:25:15.467Z,99997.16
2022-08-30T01:27:44.545Z,100000.47
2022-08-30T01:30:11.421Z,100007.22
2022-08-30T01:32:43.135Z,100002.56
2022-08-30T01:35:10.949Z,100006.78
2022-08-30T01:37:37.750Z,100003.81
2022-08-30T01:40:04.954Z,100006.13
2022-08-30T01:42:31.747Z,100010.31
2022-08-30T01:44:58.310Z,100002.53
2022-08-30T01:47:24.770Z,100001.28
2022-08-30T01:49:51.489Z,100014.66
2022-08-30T01:52:18.449Z,100019.28
2022-08-30T01:54:45.455Z,100012.13
2022-08-30T01:57:13.356Z,100014.22
2022-08-30T01:59:40.593Z,100022.59
2022-08-30T02:02:07.124Z,100017.97
2022-08-30T02:04:33.645Z,100009.81
2022-08-30T02:07:00.439Z,100014.41
2022-08-30T02:09:26.951Z,100005.38
2022-08-30T02:11:53.451Z,99997.84
2022-08-30T02:14:21.147Z,99998.91
2022-08-30T02:16:48.528Z,99999.53
2022-08-30T02:19:15.387Z,100008.09
2022-08-30T02:21:41.843Z,100009.81
2022-08-30T02:24:08.306Z,100008.75
2022-08-30T02:26:36.643Z,100013.81
2022-08-30T02:29:05.403Z,99998.06
2022-08-30T02:31:31.997Z,100006.66
2022-08-30T02:33:58.460Z,100020.09
2022-08-30T02:36:25.192Z,100016.28
2022-08-30T02:38:51.840Z,100017.56
2022-08-30T02:41:18.850Z,100019.88
2022-08-30T02:44:17.187Z,100025.13
2022-08-30T02:46:43.723Z,100029.34
2022-08-30T02:49:32.531Z,100023.91
2022-08-30T02:51:57.333Z,100023.91
2022-08-30T02:54:23.859Z,100027.28
2022-08-30T02:56:50.462Z,100035.63
2022-08-30T02:59:17.567Z,100029.75
2022-08-30T03:01:44.152Z,100034.81
2022-08-30T03:04:10.724Z,100041.91
2022-08-30T03:06:37.278Z,100030.19
2022-08-30T03:09:03.977Z,100031.00
2022-08-30T03:11:30.907Z,100029.34
2022-08-30T03:13:57.433Z,100044.44
2022-08-30T03:16:24.024Z,100037.06
2022-08-30T03:18:50.721Z,100041.50
2022-08-30T03:21:17.373Z,100036.47
2022-08-30T03:23:43.906Z,100035.84
2022-08-30T03:26:13.184Z,100041.91
2022-08-30T03:28:39.722Z,100037.16
2022-08-30T03:31:06.681Z,100044.91
2022-08-30T03:33:33.203Z,100043.66
2022-08-30T03:35:59.906Z,100035.91
2022-08-30T03:38:26.372Z,100038.19
2022-08-30T03:40:53.855Z,100031.09
2022-08-30T03:43:20.372Z,100034.84
2022-08-30T03:45:47.549Z,100036.53
2022-08-30T03:48:14.057Z,100036.53
2022-08-30T03:50:40.650Z,100032.75
2022-08-30T03:53:07.228Z,100043.66
2022-08-30T03:55:34.132Z,100043.25
2022-08-30T03:58:00.773Z,100044.94
2022-08-30T04:00:27.348Z,100048.69
2022-08-30T04:02:53.903Z,100057.13
2022-08-30T04:05:20.421Z,100051.69
2022-08-30T04:07:46.955Z,100046.22
2022-08-30T04:10:13.696Z,100047.47
2022-08-30T04:12:40.246Z,100056.94
2022-08-30T04:15:08.134Z,100052.09
2022-08-30T04:17:34.734Z,100061.34
2022-08-30T04:20:01.227Z,100058.22
2022-08-30T04:22:27.737Z,100057.13
2022-08-30T04:24:54.252Z,100067.84
2022-08-30T04:27:20.788Z,100064.72
2022-08-30T04:29:47.746Z,100066.81
2022-08-30T04:32:14.712Z,100067.25
2022-08-30T04:34:41.247Z,100066.84
2022-08-30T04:37:09.905Z,100070.81
2022-08-30T04:39:36.725Z,100073.97
2022-08-30T04:42:03.508Z,100077.31
2022-08-30T04:44:31.701Z,100078.19
2022-08-30T04:46:59.140Z,100077.75
2022-08-30T04:49:25.659Z,100075.25
2022-08-30T04:51:52.199Z,100077.75
2022-08-30T04:54:18.806Z,100087.41
2022-08-30T04:56:45.389Z,100094.13
2022-08-30T04:59:11.908Z,100087.59
2022-08-30T05:01:45.366Z,100093.28
2022-08-30T05:04:13.269Z,100096.66
2022-08-30T05:06:39.799Z,100093.69
2022-08-30T05:09:06.298Z,100097.28
2022-08-30T05:11:33.204Z,100096.88
2022-08-30T05:13:59.829Z,100101.50
2022-08-30T05:16:26.605Z,100107.16
2022-08-30T05:18:53.860Z,100109.28
2022-08-30T05:21:21.806Z,100110.50
2022-08-30T05:23:49.791Z,100108.84
2022-08-30T05:26:18.177Z,100107.38
2022-08-30T05:28:44.977Z,100106.34
2022-08-30T05:31:14.259Z,100105.09
2022-08-30T05:33:40.973Z,100107.59
2022-08-30T05:36:07.921Z,100102.16
2022-08-30T05:38:34.422Z,100109.72
2022-08-30T05:41:03.194Z,100109.31
2022-08-30T05:43:32.959Z,100112.25
2022-08-30T05:46:00.812Z,100108.88
2022-08-30T05:48:27.510Z,100109.72
2022-08-30T05:51:13.658Z,100107.38
2022-08-30T05:53:40.670Z,100110.75
2022-08-30T05:56:08.871Z,100110.53
2022-08-30T05:58:35.778Z,100115.59
2022-08-30T06:01:02.450Z,100119.34
2022-08-30T06:03:29.446Z,100110.53
2022-08-30T06:05:55.983Z,100116.19
2022-08-30T06:08:22.695Z,100115.81
2022-08-30T06:10:49.167Z,100123.19
2022-08-30T06:13:15.751Z,100122.75
2022-08-30T06:15:45.092Z,100130.75
2022-08-30T06:18:12.888Z,100116.47
2022-08-30T06:20:43.038Z,100121.28
2022-08-30T06:23:09.940Z,100127.41
2022-08-30T06:25:41.243Z,100119.41
2022-08-30T06:28:09.626Z,100125.50
2022-08-30T06:30:36.455Z,100132.44
2022-08-30T06:33:03.017Z,100135.38
2022-08-30T06:35:30.837Z,100137.47
2022-08-30T06:38:01.671Z,100142.13
2022-08-30T06:40:28.379Z,100140.00
2022-08-30T06:42:55.001Z,100133.69
2022-08-30T06:45:22.053Z,100143.16
2022-08-30T06:47:48.617Z,100144.41
2022-08-30T06:50:16.606Z,100142.94
2022-08-30T06:52:45.164Z,100140.22
2022-08-30T06:55:15.742Z,100144.63
2022-08-30T06:57:42.334Z,100144.84
2022-08-30T07:00:10.192Z,100151.13
2022-08-30T07:02:38.010Z,100145.03
2022-08-30T07:05:05.130Z,100147.56
2022-08-30T07:07:31.651Z,100150.47
2022-08-30T07:09:58.103Z,100147.56
2022-08-30T07:12:24.626Z,100141.22
2022-08-30T07:14:51.126Z,100147.53
2022-08-30T07:17:35.984Z,100148.78
2022-08-30T07:20:04.462Z,100151.03
2022-08-30T07:22:32.362Z,100137.13
2022-08-30T07:24:58.901Z,100140.69
2022-08-30T07:27:25.503Z,100140.69
2022-08-30T07:29:52.333Z,100137.38
2022-08-30T07:32:18.860Z,100136.81
2022-08-30T07:34:45.449Z,100133.31
2022-08-30T07:37:18.039Z,100145.16
2022-08-30T07:39:47.826Z,100140.03
2022-08-30T07:42:15.212Z,100142.44
2022-08-30T07:44:41.831Z,100140.88
2022-08-30T07:47:08.363Z,100142.16
2022-08-30T07:49:34.886Z,100142.66
2022-08-30T07:52:01.529Z,100139.56
2022-08-30T07:54:28.051Z,100143.03
2022-08-30T07:56:55.898Z,100159.19
2022-08-30T07:59:23.305Z,100152.28
2022-08-30T08:01:49.972Z,100155.72
2022-08-30T08:04:19.639Z,100157.22
2022-08-30T08:06:46.408Z,100158.75
2022-08-30T08:09:12.969Z,100155.28
2022-08-30T08:11:41.504Z,100159.38
2022-08-30T08:14:08.465Z,100163.06
2022-08-30T08:16:36.095Z,100163.69
2022-08-30T08:19:04.032Z,100155.13
2022-08-30T08:21:30.810Z,100156.00
2022-08-30T08:23:57.325Z,100154.13
2022-08-30T08:26:23.820Z,100154.34
2022-08-30T08:28:50.487Z,100156.63
2022-08-30T08:31:18.410Z,100161.63
2022-08-30T08:33:45.240Z,100159.59
2022-08-30T08:36:11.780Z,100160.78
2022-08-30T08:38:38.300Z,100159.75
2022-08-30T08:41:23.512Z,100156.00
2022-08-30T08:43:50.107Z,100157.81
2022-08-30T08:46:23.272Z,100157.19
2022-08-30T08:49:01.921Z,100155.81
2022-08-30T08:51:49.416Z,100156.31
2022-08-30T08:54:25.538Z,100156.16
2022-08-30T08:56:52.011Z,100151.72
2022-08-30T08:59:18.613Z,100149.94
2022-08-30T09:01:46.700Z,100156.22
2022-08-30T09:04:25.464Z,100159.63
2022-08-30T09:06:52.032Z,100156.41
2022-08-30T09:09:20.945Z,100173.59
2022-08-30T09:11:48.152Z,100167.84
2022-08-30T09:14:22.874Z,100167.59
2022-08-30T09:16:58.432Z,100168.19
2022-08-30T09:19:40.418Z,100165.16
2022-08-30T09:22:21.688Z,100173.97
2022-08-30T09:24:50.038Z,100166.78
2022-08-30T09:27:16.998Z,100176.56
2022-08-30T09:30:01.859Z,100170.84
2022-08-30T09:32:32.887Z,100173.25
2022-08-30T09:34:59.597Z,100173.56
2022-08-30T09:37:46.486Z,100172.94
2022-08-30T09:40:15.500Z,100176.41
2022-08-30T09:42:58.098Z,100175.03
2022-08-30T09:45:29.804Z,100175.91
2022-08-30T09:47:56.328Z,100176.56
2022-08-30T09:50:24.340Z,100177.63
2022-08-30T09:52:55.070Z,100170.94
2022-08-30T09:55:41.288Z,100170.72
2022-08-30T09:58:17.203Z,100161.75
2022-08-30T10:01:21.163Z,100156.25
2022-08-30T10:04:00.335Z,100157.53
2022-08-30T10:06:27.946Z,100154.31
2022-08-30T10:09:06.726Z,100155.22
2022-08-30T10:11:33.536Z,100139.75
2022-08-30T10:14:07.579Z,100145.47
2022-08-30T10:16:40.064Z,100151.81
2022-08-30T10:19:18.893Z,100140.59
2022-08-30T10:21:59.493Z,100141.25
2022-08-30T10:24:32.797Z,100137.66
2022-08-30T10:27:03.063Z,100133.84
2022-08-30T10:29:34.575Z,100129.63
2022-08-30T10:32:01.116Z,100125.44
2022-08-30T10:34:27.639Z,100122.94
2022-08-30T10:37:01.546Z,100129.06
2022-08-30T10:39:31.540Z,100120.22
2022-08-30T10:42:18.441Z,100116.94
2022-08-30T10:44:48.045Z,100126.59
2022-08-30T10:47:26.905Z,100119.41
2022-08-30T10:50:03.766Z,100109.47
2022-08-30T10:52:39.115Z,100110.22
2022-08-30T10:55:08.520Z,100109.63
2022-08-30T10:57:36.707Z,100101.91
2022-08-30T11:00:08.148Z,100107.91
2022-08-30T11:02:53.318Z,100095.59
2022-08-30T11:05:19.969Z,100097.50
2022-08-30T11:08:07.071Z,100098.59
2022-08-30T11:10:33.655Z,100100.38
2022-08-30T11:13:13.044Z,100089.94
2022-08-30T11:15:53.440Z,100089.06
2022-08-30T11:18:20.323Z,100084.25
2022-08-30T11:20:46.894Z,100087.47
2022-08-30T11:23:13.429Z,100077.19
2022-08-30T11:25:47.381Z,100080.03
2022-08-30T11:28:35.255Z,100072.09
2022-08-30T11:31:08.120Z,100073.09
2022-08-30T11:33:48.449Z,100072.41
2022-08-30T11:36:37.237Z,100072.06
2022-08-30T11:39:04.766Z,100070.03
2022-08-30T11:41:41.866Z,100066.81
2022-08-30T11:44:22.156Z,100071.50
2022-08-30T11:46:54.969Z,100066.81
2022-08-30T11:49:23.461Z,100063.84
2022-08-30T11:52:31.954Z,100066.84
2022-08-30T11:55:03.643Z,100060.06
2022-08-30T11:57:53.964Z,100068.66
2022-08-30T12:00:35.111Z,100057.31
2022-08-30T12:03:27.570Z,100053.53
2022-08-30T12:06:00.046Z,100051.66
2022-08-30T12:08:36.217Z,100047.06
2022-08-30T12:11:03.777Z,100043.97
2022-08-30T12:13:38.945Z,100039.81
2022-08-30T12:16:26.810Z,100034.59
2022-08-30T12:19:00.353Z,100033.72
2022-08-30T12:21:43.686Z,100032.00
2022-08-30T12:24:23.552Z,100024.94
2022-08-30T12:26:51.607Z,100028.19
2022-08-30T12:29:18.099Z,100027.91
2022-08-30T12:31:46.634Z,100021.97
2022-08-30T12:34:21.673Z,100016.94
2022-08-30T12:36:52.589Z,100010.31
2022-08-30T12:39:21.809Z,100007.16
2022-08-30T12:41:48.384Z,99998.09
2022-08-30T12:44:23.208Z,99997.25
2022-08-30T12:46:54.897Z,99986.66
2022-08-30T12:49:27.099Z,99984.13
2022-08-30T12:51:54.288Z,99985.78
2022-08-30T12:54:22.734Z,99992.19
2022-08-30T12:57:10.009Z,99979.97
2022-08-30T12:59:54.126Z,99979.81
2022-08-30T13:02:26.709Z,99979.44
2022-08-30T13:04:54.310Z,99967.69
2022-08-30T13:07:39.245Z,99973.97
2022-08-30T13:10:06.296Z,99961.06
2022-08-30T13:12:36.108Z,99955.47
2022-08-30T13:15:11.224Z,99962.72
2022-08-30T13:17:37.769Z,99960.72
2022-08-30T13:20:06.571Z,99961.06
2022-08-30T13:22:34.741Z,99953.63
2022-08-30T13:25:01.668Z,99968.72
2022-08-30T13:27:29.061Z,99948.63
2022-08-30T13:29:57.023Z,99954.63
2022-08-30T13:32:24.081Z,99959.56
2022-08-30T13:34:50.729Z,99955.28
2022-08-30T13:40:06.107Z,99946.47
2022-08-30T13:42:35.844Z,99947.53
2022-08-30T13:45:02.899Z,99941.75
2022-08-30T13:47:34.802Z,99951.72
2022-08-30T13:50:01.841Z,99945.84
2022-08-30T13:52:28.347Z,99940.31
2022-08-30T13:54:56.897Z,99938.06
2022-08-30T14:00:14.857Z,99942.28
2022-08-30T14:02:46.334Z,99937.84
2022-08-30T14:05:46.902Z,99927.94
2022-08-30T14:08:03.126Z,99928.94
2022-08-30T14:10:31.333Z,99924.28
2022-08-30T14:13:07.797Z,99920.09
2022-08-30T14:15:35.865Z,99922.50
2022-08-30T14:18:06.228Z,99921.78
2022-08-30T14:20:33.276Z,99920.09
2022-08-30T14:22:59.885Z,99923.72
2022-08-30T14:25:28.806Z,99925.25
2022-08-30T14:27:55.920Z,99925.22
2022-08-30T14:30:22.904Z,99926.19
2022-08-30T14:32:49.642Z,99911.47
2022-08-30T14:35:18.896Z,99914.38
2022-08-30T14:37:46.101Z,99917.88
2022-08-30T14:40:12.858Z,99907.78
2022-08-30T14:42:39.465Z,99906.47
2022-08-30T14:45:06.400Z,99911.06
2022-08-30T14:47:32.941Z,99906.66
2022-08-30T14:50:02.138Z,99909.88
2022-08-30T14:52:29.101Z,99912.94
2022-08-30T14:55:05.287Z,99917.53
2022-08-30T14:57:36.289Z,99899.91
2022-08-30T15:00:05.515Z,99907.59
2022-08-30T15:02:32.057Z,99906.88
2022-08-30T15:04:58.559Z,99895.22
2022-08-30T15:07:25.112Z,99903.66
2022-08-30T15:09:51.811Z,99897.16
2022-08-30T15:12:18.413Z,99902.25
2022-08-30T15:14:45.072Z,99897.94
2022-08-30T15:17:13.067Z,99896.25
2022-08-30T15:19:39.776Z,99904.53
2022-08-30T15:22:06.994Z,99900.69
2022-08-30T15:24:34.899Z,99902.00
2022-08-30T15:27:02.621Z,99897.38
2022-08-30T15:29:30.457Z,99887.72
2022-08-30T15:31:58.858Z,99891.19
2022-08-30T15:34:26.194Z,99884.19
2022-08-30T15:36:55.230Z,99881.38
2022-08-30T15:39:21.953Z,99887.09
2022-08-30T15:41:57.079Z,99877.88
2022-08-30T15:44:25.760Z,99877.63
2022-08-30T15:46:52.350Z,99868.28
2022-08-30T15:49:21.573Z,99874.38
2022-08-30T15:51:48.994Z,99871.63
2022-08-30T15:54:20.177Z,99883.50
2022-08-30T15:56:47.166Z,99880.47
2022-08-30T15:59:18.573Z,99879.97
2022-08-30T16:01:45.489Z,99882.69
2022-08-30T16:04:14.681Z,99880.97
2022-08-30T16:06:41.902Z,99885.38
2022-08-30T16:09:10.012Z,99878.75
2022-08-30T16:11:37.397Z,99877.13
2022-08-30T16:14:16.413Z,99879.91
2022-08-30T16:16:43.177Z,99877.06
2022-08-30T16:19:10.125Z,99878.16
2022-08-30T16:21:37.196Z,99882.53
2022-08-30T16:24:05.156Z,99872.44
2022-08-30T16:26:32.813Z,99877.88
2022-08-30T16:28:59.499Z,99876.03
2022-08-30T16:31:27.673Z,99872.53
2022-08-30T16:33:54.608Z,99872.78
2022-08-30T16:36:22.290Z,99868.09
2022-08-30T16:38:48.984Z,99877.38
2022-08-30T16:41:21.472Z,99877.25
2022-08-30T16:43:49.401Z,99881.63
2022-08-30T16:46:17.257Z,99882.16
2022-08-30T16:48:44.614Z,99882.03
2022-08-30T16:51:13.080Z,99881.75
2022-08-30T16:53:39.666Z,99893.75
2022-08-30T16:56:18.134Z,99901.94
2022-08-30T16:58:45.241Z,99905.06
2022-08-30T17:01:12.579Z,99906.59
2022-08-30T17:03:39.369Z,99913.63
2022-08-30T17:06:06.112Z,99901.91
2022-08-30T17:08:33.288Z,99908.75
2022-08-30T17:10:59.888Z,99908.09
2022-08-30T17:13:26.840Z,99909.41
2022-08-30T17:15:53.471Z,99908.25
2022-08-30T17:18:20.151Z,99923.59
2022-08-30T17:20:46.922Z,99927.44
2022-08-30T17:23:13.896Z,99926.78
2022-08-30T17:25:40.576Z,99928.94
2022-08-30T17:28:08.461Z,99923.28
2022-08-30T17:30:35.104Z,99927.59
2022-08-30T17:33:01.898Z,99926.91
2022-08-30T17:35:28.771Z,99926.56
2022-08-30T17:37:55.426Z,99931.25
2022-08-30T17:40:22.299Z,99931.75
2022-08-30T17:42:51.565Z,99940.25
2022-08-30T17:45:18.207Z,99935.25
2022-08-30T17:47:45.158Z,99943.75
2022-08-30T17:50:12.428Z,99939.91
2022-08-30T17:52:39.592Z,99938.72
2022-08-30T17:55:07.214Z,99943.41
2022-08-30T17:57:33.819Z,99948.06
2022-08-30T18:00:00.958Z,99944.72
2022-08-30T18:02:29.887Z,99940.91
2022-08-30T18:04:58.253Z,99943.66
2022-08-30T18:07:25.749Z,99944.25
2022-08-30T18:09:53.885Z,99957.75
2022-08-30T18:12:21.318Z,99965.19
2022-08-30T18:14:52.633Z,99975.09
2022-08-30T18:17:19.638Z,99982.28
2022-08-30T18:19:46.870Z,99981.44
2022-08-30T18:22:13.801Z,99977.25
2022-08-30T18:24:40.417Z,99976.56
2022-08-30T18:27:07.327Z,99974.19
2022-08-30T18:29:33.963Z,99972.16
2022-08-30T18:32:01.531Z,99967.97
2022-08-30T18:34:28.783Z,99957.44
2022-08-30T18:36:56.277Z,99968.94
2022-08-30T18:39:23.077Z,99968.94
2022-08-30T18:41:51.097Z,99985.44
2022-08-30T18:44:33.776Z,99978.78
2022-08-30T18:47:05.493Z,99973.75
2022-08-30T18:49:33.269Z,99970.88
2022-08-30T18:52:00.993Z,99971.88
2022-08-30T18:54:28.104Z,99973.94
2022-08-30T18:56:54.823Z,99963.66
2022-08-30T18:59:21.515Z,99967.13
2022-08-30T19:01:49.733Z,99960.09
2022-08-30T19:04:22.132Z,99958.06
2022-08-30T19:06:56.125Z,99960.06
2022-08-30T19:09:23.368Z,99953.38
2022-08-30T19:11:52.339Z,99963.66
2022-08-30T19:14:19.038Z,99961.88
2022-08-30T19:16:45.868Z,99957.31
2022-08-30T19:19:13.029Z,99950.50
2022-08-30T19:21:39.962Z,99948.72
2022-08-30T19:24:06.810Z,99942.06
2022-08-30T19:26:35.125Z,99933.06
2022-08-30T19:29:02.324Z,99940.56
2022-08-30T19:31:29.088Z,99938.31
2022-08-30T19:33:56.550Z,99941.06
2022-08-30T19:36:24.436Z,99942.03
2022-08-30T19:38:51.816Z,99936.63
2022-08-30T19:41:21.890Z,99938.75
2022-08-30T19:43:49.755Z,99937.91
2022-08-30T19:46:16.966Z,99941.72
2022-08-30T19:48:43.482Z,99935.03
2022-08-30T19:51:11.085Z,99943.50
2022-08-30T19:53:40.655Z,99937.19
2022-08-30T19:56:07.962Z,99934.91
2022-08-30T19:58:34.664Z,99935.97
2022-08-30T20:01:12.222Z,99931.56
2022-08-30T20:03:51.893Z,99933.09
2022-08-30T20:06:18.983Z,99936.91
2022-08-30T20:08:47.292Z,99939.88
2022-08-30T20:11:15.187Z,99936.53
2022-08-30T20:13:41.985Z,99932.00
2022-08-30T20:16:09.743Z,99928.88
2022-08-30T20:18:36.644Z,99928.28
2022-08-30T20:21:03.804Z,99928.72
2022-08-30T20:23:40.346Z,99922.53
2022-08-30T20:26:07.161Z,99923.59
2022-08-30T20:28:34.047Z,99928.00
2022-08-30T20:31:05.188Z,99924.69
2022-08-30T20:33:32.239Z,99917.50
2022-08-30T20:36:02.020Z,99927.41
2022-08-30T20:38:28.686Z,99926.34
2022-08-30T20:40:59.626Z,99921.94
2022-08-30T20:43:27.493Z,99926.34
2022-08-30T20:45:55.447Z,99925.88
2022-08-30T20:48:22.975Z,99930.06
2022-08-30T20:50:49.654Z,99931.72
2022-08-30T20:53:16.595Z,99932.56
2022-08-30T20:55:43.974Z,99922.41
2022-08-30T20:58:10.686Z,99924.94
2022-08-30T21:00:37.809Z,99929.59
2022-08-30T21:03:13.339Z,99921.59
2022-08-30T21:05:52.024Z,99924.94
2022-08-30T21:08:18.844Z,99926.63
2022-08-30T21:10:46.367Z,99918.63
2022-08-30T21:13:12.923Z,99920.75
2022-08-30T21:15:39.551Z,99918.22
2022-08-30T21:18:06.647Z,99913.72
2022-08-30T21:20:33.328Z,99917.38
2022-08-30T21:23:00.354Z,99923.94
2022-08-30T21:25:26.873Z,99920.59
2022-08-30T21:27:54.192Z,99923.94
2022-08-30T21:30:20.754Z,99929.41
2022-08-30T21:32:47.358Z,99931.09
2022-08-30T21:35:32.402Z,99930.69
2022-08-30T21:37:58.922Z,99925.91
2022-08-30T21:40:25.550Z,99930.34
2022-08-30T21:42:52.285Z,99929.59
2022-08-30T21:45:19.537Z,99920.75
2022-08-30T21:47:46.085Z,99920.75
2022-08-30T21:50:12.765Z,99918.59
2022-08-30T21:52:39.235Z,99917.31
2022-08-30T21:55:05.867Z,99914.34
2022-08-30T21:57:32.969Z,99921.50
2022-08-30T21:59:59.614Z,99907.19
2022-08-30T22:02:26.178Z,99912.66
2022-08-30T22:04:52.795Z,99901.69
2022-08-30T22:07:19.313Z,99909.78
2022-08-30T22:09:45.849Z,99907.50
2022-08-30T22:12:12.405Z,99908.56
2022-08-30T22:14:39.407Z,99907.38
2022-08-30T22:17:05.957Z,99912.19
2022-08-30T22:19:33.695Z,99907.81
2022-08-30T22:22:01.311Z,99903.38
2022-08-30T22:24:32.502Z,99900.63
2022-08-30T22:26:59.672Z,99898.97
2022-08-30T22:29:26.175Z,99894.56
2022-08-30T22:31:52.804Z,99897.31
2022-08-30T22:34:19.364Z,99896.69
2022-08-30T22:36:45.899Z,99901.56
2022-08-30T22:39:13.405Z,99899.88
2022-08-30T22:41:41.463Z,99891.06
2022-08-30T22:44:08.019Z,99894.84
2022-08-30T22:46:35.522Z,99894.50
2022-08-30T22:49:03.059Z,99891.97
2022-08-30T22:51:29.714Z,99897.94
2022-08-30T22:53:56.646Z,99892.91
2022-08-30T22:56:25.076Z,99885.78
2022-08-30T22:58:52.099Z,99891.25
2022-08-30T23:01:20.291Z,99891.72
2022-08-30T23:03:47.005Z,99885.13
2022-08-30T23:06:13.550Z,99884.09
2022-08-30T23:08:40.153Z,99878.59
2022-08-30T23:11:06.689Z,99882.41
2022-08-30T23:13:33.286Z,99879.66
2022-08-30T23:16:01.131Z,99879.06
2022-08-30T23:18:27.652Z,99875.72
2022-08-30T23:21:02.246Z,99859.75
2022-08-30T23:23:47.350Z,99870.31
2022-08-30T23:26:32.913Z,99869.47
2022-08-30T23:29:17.766Z,99867.78
2022-08-30T23:32:02.749Z,99869.47
2022-08-30T23:34:47.769Z,99869.47
2022-08-30T23:37:32.775Z,99858.97
2022-08-30T23:40:18.028Z,99870.41
2022-08-30T23:43:03.379Z,99867.06
2022-08-30T23:45:48.586Z,99865.38
2022-08-30T23:48:33.862Z,99871.31
2022-08-30T23:51:22.035Z,99862.50
2022-08-30T23:54:07.139Z,99854.50
2022-08-30T23:56:52.202Z,99850.31
2022-08-30T23:59:37.080Z,99848.84
